Time;durP1;ratioP1;P1;durP2;ratioP2;P2;SDS_P1;SDS_P2;PMS_P1;PMS_P2;Temp;Humidity;BMP_temperature;BMP_pressure;BME280_temperature;BME280_humidity;BME280_pressure;Samples;Min_cycle;Max_cycle;Signal;HPM_P1;HPM_P2
2022/07/21 00:02:25;;;;;;;3.95;1.40;;;27.20;56.10;;;;;;5070132;28;20090;-79
2022/07/21 00:04:51;;;;;;;5.05;1.88;;;27.10;56.10;;;;;;5053348;28;20040;-79
2022/07/21 00:07:16;;;;;;;7.10;1.90;;;27.10;56.20;;;;;;5070149;28;20037;-80
2022/07/21 00:09:42;;;;;;;3.38;1.35;;;27.00;56.20;;;;;;5052929;28;20446;-78
2022/07/21 00:12:07;;;;;;;12.38;1.90;;;27.00;56.10;;;;;;5053127;28;20060;-78
2022/07/21 00:14:33;;;;;;;1.88;1.13;;;26.90;56.50;;;;;;5053853;28;20035;-79
2022/07/21 00:16:58;;;;;;;3.53;1.65;;;26.90;56.50;;;;;;5071715;28;20037;-80
2022/07/21 00:19:24;;;;;;;3.67;1.75;;;26.90;56.50;;;;;;5053029;28;20078;-78
2022/07/21 00:21:49;;;;;;;4.45;1.60;;;26.90;56.60;;;;;;5070713;28;20028;-81
2022/07/21 00:24:15;;;;;;;4.22;1.77;;;26.90;56.10;;;;;;5070666;28;20040;-77
2022/07/21 00:26:42;;;;;;;4.43;2.10;;;26.80;56.00;;;;;;5069971;28;20040;-80
2022/07/21 00:29:07;;;;;;;6.15;2.35;;;26.90;56.30;;;;;;5069904;28;20031;-81
2022/07/21 00:31:33;;;;;;;5.53;2.95;;;26.90;56.90;;;;;;5069257;28;20032;-77
2022/07/21 00:33:58;;;;;;;5.72;3.17;;;26.90;57.50;;;;;;5069856;28;20064;-77
2022/07/21 00:36:23;;;;;;;6.55;3.75;;;27.00;58.00;;;;;;5069599;28;20467;-77
2022/07/21 00:38:49;;;;;;;9.60;4.22;;;27.10;58.50;;;;;;5070352;28;20051;-80
2022/07/21 00:41:15;;;;;;;6.75;3.85;;;27.10;58.90;;;;;;5051960;28;20032;-78
2022/07/21 00:43:40;;;;;;;7.68;3.70;;;27.10;59.50;;;;;;5051848;28;20036;-83
2022/07/21 00:46:06;;;;;;;7.90;4.57;;;27.10;59.90;;;;;;5069374;28;20537;-80
2022/07/21 00:48:31;;;;;;;11.70;4.93;;;27.10;60.20;;;;;;5069695;28;20435;-79
2022/07/21 00:50:57;;;;;;;13.48;5.15;;;27.20;60.80;;;;;;5069952;28;20487;-81
2022/07/21 00:53:23;;;;;;;12.90;5.15;;;27.20;61.30;;;;;;5069568;28;20533;-77
2022/07/21 00:55:48;;;;;;;15.60;5.10;;;27.20;61.80;;;;;;5069135;28;20112;-80
2022/07/21 00:58:14;;;;;;;11.45;5.15;;;27.30;62.50;;;;;;5069991;28;20615;-79
2022/07/21 01:00:40;;;;;;;13.10;5.88;;;27.20;62.60;;;;;;5051857;28;20040;-82
2022/07/21 01:03:06;;;;;;;10.88;5.07;;;27.20;63.00;;;;;;5051713;28;20036;-78
2022/07/21 01:05:32;;;;;;;16.60;6.03;;;27.20;63.20;;;;;;5069174;28;20047;-77
2022/07/21 01:08:02;;;;;;;15.35;5.68;;;27.10;63.50;;;;;;5051816;28;20115;-79
2022/07/21 01:10:28;;;;;;;22.65;5.03;;;27.10;63.70;;;;;;5070104;28;20482;-79
2022/07/21 01:12:54;;;;;;;21.23;6.00;;;27.10;63.90;;;;;;5051863;28;20116;-77
2022/07/21 01:15:20;;;;;;;9.70;4.90;;;27.00;64.20;;;;;;5069679;28;20091;-79
2022/07/21 01:17:47;;;;;;;11.52;5.78;;;27.00;64.80;;;;;;5069849;28;20483;-77
2022/07/21 01:20:18;;;;;;;16.63;4.72;;;26.90;64.80;;;;;;5052179;28;20390;-77
2022/07/21 01:22:46;;;;;;;13.60;4.72;;;26.90;65.10;;;;;;5069331;28;20034;-77
2022/07/21 01:25:12;;;;;;;13.98;4.70;;;26.90;65.30;;;;;;5069143;28;20043;-78
2022/07/21 01:27:37;;;;;;;11.57;4.57;;;26.90;65.40;;;;;;5051279;28;20075;-77
2022/07/21 01:30:07;;;;;;;15.65;6.13;;;26.80;65.30;;;;;;5070234;28;20028;-78
2022/07/21 01:32:37;;;;;;;9.48;4.95;;;26.80;66.00;;;;;;5051331;28;20021;-77
2022/07/21 01:35:05;;;;;;;16.17;5.35;;;26.70;66.60;;;;;;5051431;28;20032;-77
2022/07/21 01:37:31;;;;;;;13.82;5.10;;;26.60;66.30;;;;;;5069111;28;20025;-78
2022/07/21 01:42:41;;;;;;;10.90;5.03;;;26.50;66.90;;;;;;5073123;28;20083;-77
2022/07/21 01:45:08;;;;;;;12.40;4.60;;;26.50;67.10;;;;;;5055179;28;20053;-76
2022/07/21 01:47:34;;;;;;;9.52;4.93;;;26.40;66.90;;;;;;5073108;28;20051;-76
2022/07/21 01:50:00;;;;;;;14.68;4.55;;;26.40;67.10;;;;;;5056117;28;20471;-80
2022/07/21 01:52:26;;;;;;;11.73;4.68;;;26.30;67.00;;;;;;5054774;28;20032;-78
2022/07/21 01:54:51;;;;;;;5.30;4.07;;;26.20;67.10;;;;;;5055244;28;20458;-79
2022/07/21 01:57:17;;;;;;;6.97;4.45;;;26.20;67.00;;;;;;5072739;28;20029;-80
2022/07/21 01:59:42;;;;;;;7.75;4.85;;;26.20;67.20;;;;;;5073783;28;20063;-78
2022/07/21 02:02:09;;;;;;;14.60;4.05;;;26.20;66.80;;;;;;5074029;28;20032;-79
2022/07/21 02:04:34;;;;;;;6.30;3.78;;;26.10;66.60;;;;;;5073763;28;20036;-76
2022/07/21 02:07:00;;;;;;;8.35;3.70;;;26.10;66.90;;;;;;5055433;28;20038;-79
2022/07/21 02:09:26;;;;;;;5.82;3.78;;;26.10;66.60;;;;;;5074149;28;20029;-78
2022/07/21 02:11:52;;;;;;;9.98;4.40;;;26.10;66.60;;;;;;5055506;28;20101;-79
2022/07/21 02:14:17;;;;;;;6.90;3.58;;;26.00;66.80;;;;;;5055266;28;20033;-78
2022/07/21 02:16:43;;;;;;;9.55;4.40;;;26.00;67.00;;;;;;5072933;28;20532;-77
2022/07/21 02:19:09;;;;;;;6.20;3.40;;;26.00;66.30;;;;;;5055415;28;20033;-77
2022/07/21 02:21:34;;;;;;;7.57;4.07;;;26.00;66.50;;;;;;5072814;28;20382;-75
2022/07/21 02:24:00;;;;;;;11.55;4.10;;;25.90;66.10;;;;;;5073428;28;20033;-77
2022/07/21 02:26:25;;;;;;;8.60;4.30;;;26.00;66.20;;;;;;5053631;28;20112;-79
2022/07/21 02:28:51;;;;;;;9.57;4.10;;;25.90;66.20;;;;;;5072930;28;20139;-78
2022/07/21 02:31:16;;;;;;;4.60;3.72;;;25.90;66.00;;;;;;5055575;28;20431;-77
2022/07/21 02:33:42;;;;;;;6.13;4.05;;;25.90;65.90;;;;;;5056197;28;20118;-77
2022/07/21 02:36:08;;;;;;;6.50;3.95;;;25.90;65.70;;;;;;5073800;28;20024;-80
2022/07/21 02:38:34;;;;;;;9.75;3.95;;;25.90;65.90;;;;;;5073970;28;20035;-77
2022/07/21 02:40:59;;;;;;;7.20;3.72;;;25.90;65.40;;;;;;5073025;28;20453;-75
2022/07/21 02:43:25;;;;;;;4.18;3.28;;;25.90;65.50;;;;;;5056041;28;20039;-78
2022/07/21 02:45:50;;;;;;;6.32;3.85;;;25.90;65.40;;;;;;5072221;28;20041;-79
2022/07/21 02:48:16;;;;;;;7.93;4.88;;;25.80;65.40;;;;;;5074836;28;20028;-78
2022/07/21 02:50:43;;;;;;;6.45;3.95;;;25.80;65.60;;;;;;5072848;28;20028;-77
2022/07/21 02:53:17;;;;;;;5.38;3.78;;;25.80;65.60;;;;;;5073315;28;20031;-77
2022/07/21 02:55:43;;;;;;;6.28;3.75;;;25.80;65.80;;;;;;5072192;28;20081;-77
2022/07/21 02:58:12;;;;;;;7.28;4.28;;;25.80;65.90;;;;;;5072944;28;20108;-77
2022/07/21 03:00:44;;;;;;;11.75;3.67;;;25.70;65.80;;;;;;5072593;28;20028;-79
2022/07/21 03:03:10;;;;;;;6.45;3.63;;;25.80;65.70;;;;;;5053772;28;20028;-78
2022/07/21 03:05:36;;;;;;;6.30;3.90;;;25.70;65.70;;;;;;5071284;28;20040;-78
2022/07/21 03:08:03;;;;;;;7.72;3.92;;;25.70;65.50;;;;;;5054283;28;20115;-80
2022/07/21 03:10:29;;;;;;;10.18;3.75;;;25.70;65.90;;;;;;5071883;28;20123;-79
2022/07/21 03:12:55;;;;;;;4.80;3.30;;;25.60;65.80;;;;;;5073253;28;20063;-78
2022/07/21 03:15:21;;;;;;;7.65;3.45;;;25.70;65.70;;;;;;5053950;28;20078;-78
2022/07/21 03:17:46;;;;;;;4.60;3.50;;;25.70;65.80;;;;;;5072637;28;20029;-78
2022/07/21 03:20:12;;;;;;;7.68;3.35;;;25.60;65.80;;;;;;5072708;28;20032;-76
2022/07/21 03:22:38;;;;;;;6.82;3.60;;;25.60;65.80;;;;;;5071971;28;20052;-77
2022/07/21 03:25:04;;;;;;;7.07;3.58;;;25.60;66.10;;;;;;5054312;28;20075;-77
2022/07/21 03:27:30;;;;;;;6.65;3.80;;;25.50;66.00;;;;;;5053106;28;20056;-78
2022/07/21 03:29:55;;;;;;;9.27;3.55;;;25.50;65.80;;;;;;5054955;28;20747;-79
2022/07/21 03:32:21;;;;;;;7.72;3.97;;;25.50;65.90;;;;;;5053960;28;20028;-79
2022/07/21 03:34:46;;;;;;;6.68;3.65;;;25.50;66.00;;;;;;5072170;28;20048;-78
2022/07/21 03:37:12;;;;;;;4.90;3.65;;;25.60;65.70;;;;;;5053466;28;20090;-80
2022/07/21 03:39:38;;;;;;;5.70;4.07;;;25.60;65.40;;;;;;5071720;28;20032;-78
2022/07/21 03:42:03;;;;;;;7.43;3.70;;;25.60;65.60;;;;;;5072918;28;20067;-80
2022/07/21 03:44:29;;;;;;;5.63;4.07;;;25.60;65.40;;;;;;5053921;28;20081;-78
2022/07/21 03:46:56;;;;;;;4.63;3.45;;;25.60;66.10;;;;;;5071083;28;20020;-77
2022/07/21 03:49:22;;;;;;;6.78;3.60;;;25.60;66.80;;;;;;5053315;28;20401;-80
2022/07/21 03:51:48;;;;;;;7.82;3.55;;;25.60;66.90;;;;;;5052708;28;20607;-78
2022/07/21 03:54:13;;;;;;;5.10;3.45;;;25.70;67.70;;;;;;5071460;28;20107;-80
2022/07/21 03:56:39;;;;;;;4.88;3.42;;;25.60;67.70;;;;;;5053683;28;20029;-77
2022/07/21 03:59:04;;;;;;;4.95;3.20;;;25.60;68.00;;;;;;5071473;28;20036;-78
2022/07/21 04:01:30;;;;;;;3.50;2.97;;;25.60;68.30;;;;;;5071825;28;20056;-77
2022/07/21 04:03:55;;;;;;;5.25;3.55;;;25.70;68.60;;;;;;5070935;28;20036;-78
2022/07/21 04:06:21;;;;;;;7.40;3.35;;;25.60;68.50;;;;;;5071398;28;20164;-79
2022/07/21 04:08:46;;;;;;;6.13;2.58;;;25.70;69.00;;;;;;5071428;28;20039;-75
2022/07/21 04:11:12;;;;;;;4.85;2.85;;;25.60;68.50;;;;;;5054485;28;20504;-79
2022/07/21 04:13:38;;;;;;;5.70;2.65;;;25.60;69.00;;;;;;5054186;28;20036;-77
2022/07/21 04:16:03;;;;;;;7.15;2.78;;;25.60;68.90;;;;;;5070814;28;20028;-76
2022/07/21 04:18:29;;;;;;;5.53;2.50;;;25.70;69.00;;;;;;5072324;28;20478;-77
2022/07/21 04:20:54;;;;;;;4.28;2.75;;;25.60;68.90;;;;;;5071788;28;20687;-77
2022/07/21 04:23:20;;;;;;;4.93;2.90;;;25.70;69.10;;;;;;5053329;28;20020;-77
2022/07/21 04:25:45;;;;;;;4.68;2.38;;;25.60;69.20;;;;;;5071451;28;20037;-78
2022/07/21 04:28:11;;;;;;;4.47;2.03;;;25.70;69.20;;;;;;5054328;28;20435;-78
2022/07/21 04:30:37;;;;;;;5.10;2.25;;;25.60;69.20;;;;;;5054258;28;20034;-78
2022/07/21 04:33:03;;;;;;;5.70;2.42;;;25.70;69.30;;;;;;5052712;28;20466;-78
2022/07/21 04:35:29;;;;;;;9.90;3.40;;;25.70;69.40;;;;;;5071359;28;20107;-77
2022/07/21 04:37:54;;;;;;;7.38;2.38;;;25.70;69.70;;;;;;5072061;28;20082;-77
2022/07/21 04:40:20;;;;;;;2.78;2.38;;;25.70;69.80;;;;;;5072701;28;20098;-77
2022/07/21 04:42:46;;;;;;;7.13;2.30;;;25.70;69.60;;;;;;5053651;28;20711;-80
2022/07/21 04:45:13;;;;;;;2.85;1.95;;;25.80;69.70;;;;;;5071540;28;20038;-78
2022/07/21 04:47:54;;;;;;;3.53;2.00;;;25.90;70.10;;;;;;5072103;28;20470;-79
2022/07/21 04:50:23;;;;;;;5.93;2.45;;;26.00;69.70;;;;;;5073057;28;20021;-76
2022/07/21 04:52:49;;;;;;;3.95;2.40;;;26.10;69.60;;;;;;5071171;28;20031;-77
2022/07/21 04:55:15;;;;;;;3.20;2.10;;;26.20;69.90;;;;;;5070968;28;20036;-78
2022/07/21 04:57:44;;;;;;;3.47;2.20;;;26.20;69.50;;;;;;5052876;28;20025;-78
2022/07/21 05:00:12;;;;;;;1.98;1.60;;;26.30;68.50;;;;;;5053427;28;20029;-79
2022/07/21 05:02:38;;;;;;;3.83;2.10;;;26.30;69.00;;;;;;5071309;28;20032;-79
2022/07/21 05:05:04;;;;;;;3.30;2.47;;;26.40;68.80;;;;;;5052587;28;20025;-79
2022/07/21 05:07:30;;;;;;;6.35;1.95;;;26.50;68.80;;;;;;5070384;28;20103;-77
2022/07/21 05:09:57;;;;;;;3.55;2.28;;;26.40;68.70;;;;;;5051887;28;20812;-77
2022/07/21 05:12:22;;;;;;;7.50;2.42;;;26.50;68.80;;;;;;5071247;28;20031;-79
2022/07/21 05:14:47;;;;;;;6.55;2.33;;;26.60;68.70;;;;;;5055813;28;20394;-77
2022/07/21 05:17:13;;;;;;;8.02;2.08;;;26.70;68.20;;;;;;5075178;28;20394;-78
2022/07/21 05:19:38;;;;;;;3.70;1.85;;;26.70;67.90;;;;;;5075021;28;20129;-79
2022/07/21 05:22:04;;;;;;;2.20;1.85;;;26.80;67.70;;;;;;5057568;28;20024;-78
2022/07/21 05:24:29;;;;;;;3.95;2.00;;;26.80;68.00;;;;;;5075673;28;20470;-80
2022/07/21 05:26:55;;;;;;;3.72;1.80;;;26.80;67.70;;;;;;5073602;28;20040;-77
2022/07/21 05:29:20;;;;;;;5.85;2.03;;;26.80;67.50;;;;;;5056379;28;20032;-78
2022/07/21 05:31:46;;;;;;;3.45;2.03;;;26.80;67.50;;;;;;5073967;28;20037;-77
2022/07/21 05:34:11;;;;;;;1.75;1.55;;;26.80;67.00;;;;;;5074839;28;20040;-78
2022/07/21 05:36:37;;;;;;;5.82;2.03;;;26.90;67.60;;;;;;5074456;28;20074;-78
2022/07/21 05:39:03;;;;;;;8.65;2.63;;;26.90;67.70;;;;;;5074002;28;20059;-79
2022/07/21 05:41:28;;;;;;;3.17;2.22;;;26.90;67.60;;;;;;5074377;28;20090;-78
2022/07/21 05:43:53;;;;;;;9.68;2.50;;;26.90;68.00;;;;;;5074255;28;20036;-80
2022/07/21 05:46:19;;;;;;;4.38;2.03;;;26.80;68.00;;;;;;5073810;28;20028;-78
2022/07/21 05:48:44;;;;;;;7.28;2.35;;;26.80;68.90;;;;;;5074362;28;20470;-76
2022/07/21 05:51:10;;;;;;;9.75;2.55;;;26.70;69.40;;;;;;5073273;28;20039;-78
2022/07/21 05:53:35;;;;;;;6.25;2.45;;;26.60;70.30;;;;;;5072823;28;20044;-79
2022/07/21 05:56:01;;;;;;;6.80;2.40;;;26.50;70.60;;;;;;5054432;28;20036;-79
2022/07/21 05:58:26;;;;;;;4.63;3.00;;;26.50;71.30;;;;;;5073339;28;20611;-77
2022/07/21 06:01:08;;;;;;;5.13;2.55;;;26.40;72.00;;;;;;5073207;28;20032;-76
2022/07/21 06:03:39;;;;;;;6.03;2.97;;;26.40;71.80;;;;;;5054982;28;20478;-76
2022/07/21 06:06:05;;;;;;;3.05;2.30;;;26.40;71.80;;;;;;5072980;28;20302;-79
2022/07/21 06:08:30;;;;;;;3.92;2.08;;;26.40;70.70;;;;;;5073439;28;20033;-77
2022/07/21 06:10:56;;;;;;;5.18;2.33;;;26.30;70.90;;;;;;5056796;28;20036;-76
2022/07/21 06:13:22;;;;;;;7.18;2.15;;;26.30;70.80;;;;;;5057467;28;20036;-79
2022/07/21 06:15:47;;;;;;;3.85;2.65;;;26.20;71.00;;;;;;5057114;28;20394;-79
2022/07/21 06:18:14;;;;;;;7.97;2.25;;;26.20;71.30;;;;;;5075089;28;20032;-78
2022/07/21 06:20:40;;;;;;;4.07;2.30;;;26.20;71.50;;;;;;5074299;28;20028;-75
2022/07/21 06:23:06;;;;;;;3.67;2.20;;;26.20;71.00;;;;;;5074435;28;20027;-77
2022/07/21 06:25:31;;;;;;;2.60;1.88;;;26.30;71.20;;;;;;5073054;28;20749;-77
2022/07/21 06:27:57;;;;;;;4.75;2.08;;;26.20;70.90;;;;;;5073420;28;20025;-76
2022/07/21 06:30:22;;;;;;;1.98;1.77;;;26.30;71.80;;;;;;5073490;28;20123;-77
2022/07/21 06:32:48;;;;;;;6.57;2.25;;;26.30;71.40;;;;;;5073057;28;20040;-77
2022/07/21 06:35:13;;;;;;;4.40;2.45;;;26.30;71.20;;;;;;5055275;28;20100;-76
2022/07/21 06:37:43;;;;;;;3.45;2.30;;;26.30;71.90;;;;;;5054777;28;20116;-78
2022/07/21 06:40:09;;;;;;;3.70;2.08;;;26.30;72.10;;;;;;5055502;28;20022;-79
2022/07/21 06:42:35;;;;;;;2.95;2.25;;;26.40;72.20;;;;;;5054164;28;20040;-78
2022/07/21 06:45:00;;;;;;;2.75;1.60;;;26.50;71.90;;;;;;5054945;28;20032;-79
2022/07/21 06:47:26;;;;;;;2.28;1.67;;;26.50;71.80;;;;;;5053510;28;20061;-77
2022/07/21 06:49:51;;;;;;;2.80;1.67;;;26.70;71.60;;;;;;5055486;28;20033;-79
2022/07/21 06:52:17;;;;;;;3.55;2.22;;;26.90;71.70;;;;;;5072448;28;20423;-81
2022/07/21 06:54:42;;;;;;;3.38;1.60;;;27.00;71.00;;;;;;5072363;28;20051;-78
2022/07/21 06:57:08;;;;;;;2.70;1.63;;;27.10;70.40;;;;;;5071561;28;20024;-78
2022/07/21 06:59:33;;;;;;;3.42;1.80;;;27.20;70.80;;;;;;5072104;28;20035;-79
2022/07/21 07:01:59;;;;;;;2.45;1.70;;;27.30;70.50;;;;;;5053994;28;20032;-78
2022/07/21 07:04:24;;;;;;;2.53;1.70;;;27.30;70.40;;;;;;5072335;28;20029;-78
2022/07/21 07:06:52;;;;;;;3.70;1.70;;;27.50;71.10;;;;;;5071900;28;20163;-79
2022/07/21 07:09:18;;;;;;;2.45;1.52;;;27.50;68.90;;;;;;5072169;28;20099;-78
2022/07/21 07:11:44;;;;;;;4.80;1.83;;;27.60;69.30;;;;;;5071796;28;20468;-78
2022/07/21 07:14:10;;;;;;;3.33;2.10;;;27.60;69.50;;;;;;5054730;28;20068;-77
2022/07/21 07:16:35;;;;;;;3.75;2.10;;;27.60;69.50;;;;;;5052610;28;20097;-79
2022/07/21 07:19:00;;;;;;;5.65;1.90;;;27.70;69.80;;;;;;5053523;28;20580;-76
2022/07/21 07:21:26;;;;;;;3.55;1.92;;;27.80;69.90;;;;;;5070942;28;20119;-77
2022/07/21 07:23:51;;;;;;;3.83;2.22;;;27.90;69.50;;;;;;5053085;28;20048;-77
2022/07/21 07:26:17;;;;;;;2.58;1.80;;;27.90;69.70;;;;;;5070554;28;20136;-78
2022/07/21 07:28:42;;;;;;;3.05;1.88;;;28.00;69.30;;;;;;5069224;28;20044;-77
2022/07/21 07:31:08;;;;;;;3.38;2.58;;;28.10;68.60;;;;;;5070729;28;20020;-80
2022/07/21 07:33:33;;;;;;;4.95;2.38;;;28.10;68.70;;;;;;5071086;28;20028;-80
2022/07/21 07:35:59;;;;;;;4.30;2.42;;;28.20;68.30;;;;;;5069166;28;20052;-78
2022/07/21 07:38:24;;;;;;;4.55;2.80;;;28.20;68.30;;;;;;5070546;28;20420;-80
2022/07/21 07:40:50;;;;;;;5.28;2.15;;;28.10;68.30;;;;;;5070419;28;20063;-80
2022/07/21 07:43:15;;;;;;;4.43;2.45;;;28.20;69.00;;;;;;5052897;28;20032;-79
2022/07/21 07:45:41;;;;;;;4.60;1.88;;;28.20;68.20;;;;;;5070184;28;20070;-78
2022/07/21 07:48:06;;;;;;;5.63;3.10;;;28.30;68.20;;;;;;5053015;28;20039;-78
2022/07/21 07:50:32;;;;;;;4.68;2.17;;;28.40;67.60;;;;;;5070759;28;20610;-77
2022/07/21 07:52:58;;;;;;;4.63;2.17;;;28.30;67.10;;;;;;5052917;28;20437;-77
2022/07/21 07:55:23;;;;;;;4.03;2.97;;;28.30;67.40;;;;;;5052044;28;20043;-77
2022/07/21 07:57:49;;;;;;;5.70;2.58;;;28.30;67.30;;;;;;5070707;28;20032;-78
2022/07/21 08:00:17;;;;;;;3.25;2.53;;;28.40;67.60;;;;;;5071104;28;20111;-77
2022/07/21 08:02:42;;;;;;;8.30;2.65;;;28.50;67.00;;;;;;5070303;28;20032;-80
2022/07/21 08:05:09;;;;;;;4.68;2.17;;;28.60;67.50;;;;;;5070451;28;20046;-80
2022/07/21 08:07:39;;;;;;;2.88;2.35;;;28.70;66.90;;;;;;5069761;28;20024;-79
2022/07/21 08:10:11;;;;;;;3.85;2.38;;;28.90;66.80;;;;;;5070415;28;20032;-78
2022/07/21 08:12:37;;;;;;;;;;;29.20;66.90;;;;;;5070569;28;20050;-79
2022/07/21 08:15:04;;;;;;;3.38;2.53;;;29.40;65.90;;;;;;5086071;28;20429;-80
2022/07/21 08:17:30;;;;;;;3.75;2.17;;;29.60;65.70;;;;;;5051639;28;20482;-80
2022/07/21 08:19:55;;;;;;;4.38;2.40;;;29.70;64.80;;;;;;5070449;28;20032;-80
2022/07/21 08:22:21;;;;;;;5.57;2.63;;;29.90;66.00;;;;;;5051470;28;20024;-79
2022/07/21 08:24:46;;;;;;;2.60;2.20;;;29.90;64.40;;;;;;5051873;28;20113;-79
2022/07/21 08:27:12;;;;;;;3.97;2.40;;;29.70;65.00;;;;;;5069418;28;20032;-80
2022/07/21 08:29:37;;;;;;;4.50;2.47;;;29.60;65.20;;;;;;5070071;28;20040;-77
2022/07/21 08:32:03;;;;;;;3.42;2.72;;;29.50;66.20;;;;;;5069835;28;20035;-79
2022/07/21 08:34:29;;;;;;;5.68;2.95;;;29.20;66.20;;;;;;5051786;28;20040;-77
2022/07/21 08:36:54;;;;;;;5.05;2.58;;;29.10;66.90;;;;;;5051706;28;20032;-80
2022/07/21 08:39:20;;;;;;;3.60;2.65;;;28.90;67.20;;;;;;5051630;28;20481;-78
2022/07/21 08:41:46;;;;;;;3.65;2.40;;;28.70;67.30;;;;;;5070250;28;20055;-81
2022/07/21 08:44:12;;;;;;;5.72;2.53;;;28.70;67.70;;;;;;5069999;28;20093;-79
2022/07/21 08:46:40;;;;;;;7.25;2.35;;;28.50;68.50;;;;;;5051223;28;20127;-78
2022/07/21 08:49:06;;;;;;;4.90;2.42;;;28.40;68.80;;;;;;5052291;28;20080;-78
2022/07/21 08:51:34;;;;;;;4.30;2.67;;;28.40;69.20;;;;;;5074348;28;20037;-77
2022/07/21 08:54:00;;;;;;;4.57;2.83;;;28.20;69.30;;;;;;5056444;28;20040;-79
2022/07/21 08:56:25;;;;;;;7.05;3.45;;;28.10;69.80;;;;;;5073015;28;20425;-79
2022/07/21 08:58:51;;;;;;;2.97;2.70;;;28.00;69.90;;;;;;5074198;28;20025;-78
2022/07/21 09:01:16;;;;;;;7.43;3.45;;;27.80;70.50;;;;;;5073672;28;20504;-78
2022/07/21 09:03:42;;;;;;;4.68;3.10;;;27.70;71.20;;;;;;5055675;28;20438;-78
2022/07/21 09:06:14;;;;;;;6.25;3.30;;;27.60;71.80;;;;;;5055532;28;20029;-78
2022/07/21 09:08:46;;;;;;;6.05;3.35;;;27.50;71.90;;;;;;5073899;28;20060;-78
2022/07/21 09:11:27;;;;;;;5.03;3.33;;;27.40;72.80;;;;;;5073534;28;20032;-77
2022/07/21 09:14:13;;;;;;;4.72;3.47;;;27.20;72.60;;;;;;5057722;28;20043;-80
2022/07/21 09:16:40;;;;;;;9.00;4.18;;;27.00;73.50;;;;;;5075086;28;20037;-79
2022/07/21 09:19:06;;;;;;;11.07;3.75;;;26.80;74.10;;;;;;5074062;28;20031;-79
2022/07/21 09:21:33;;;;;;;7.35;3.85;;;26.70;75.00;;;;;;5073833;28;20367;-78
2022/07/21 09:24:13;;;;;;;6.07;3.88;;;26.60;74.90;;;;;;5073687;28;20036;-78
2022/07/21 09:26:58;;;;;;;9.43;4.20;;;26.50;75.60;;;;;;5072741;28;20062;-78
2022/07/21 09:29:24;;;;;;;6.97;4.20;;;26.40;77.70;;;;;;5055323;28;20024;-77
2022/07/21 09:31:49;;;;;;;6.15;4.45;;;26.30;78.60;;;;;;5072980;28;20036;-78
2022/07/21 09:34:15;;;;;;;6.07;4.78;;;26.30;80.50;;;;;;5055185;28;20120;-77
2022/07/21 09:36:55;;;;;;;5.03;4.53;;;26.20;81.60;;;;;;5054498;28;20094;-79
2022/07/21 09:40:03;;;;;;;12.13;5.13;;;26.10;83.80;;;;;;5073239;28;20033;-80
2022/07/21 09:42:35;;;;;;;7.45;5.35;;;26.10;86.80;;;;;;5066336;28;20063;-78
2022/07/21 09:45:04;;;;;;;7.95;5.10;;;26.00;87.80;;;;;;5072880;28;20029;-78
2022/07/21 09:47:31;;;;;;;8.50;5.65;;;25.90;90.70;;;;;;5072141;28;20036;-76
2022/07/21 09:49:58;;;;;;;5.97;4.68;;;25.90;91.70;;;;;;5055090;28;20605;-78
2022/07/21 09:52:32;;;;;;;7.63;5.28;;;25.80;90.50;;;;;;5054525;28;20031;-80
2022/07/21 09:55:09;;;;;;;5.68;5.15;;;25.60;91.50;;;;;;5072985;28;20115;-78
2022/07/21 09:57:35;;;;;;;7.80;5.03;;;25.50;92.30;;;;;;5071927;28;20037;-78
2022/07/21 10:00:04;;;;;;;6.50;5.13;;;25.40;92.00;;;;;;5072946;28;20036;-79
2022/07/21 10:02:31;;;;;;;11.00;5.47;;;25.30;92.70;;;;;;5070867;28;20028;-78
2022/07/21 10:05:10;;;;;;;7.50;5.38;;;25.30;92.70;;;;;;5072898;28;20039;-81
2022/07/21 10:07:38;;;;;;;9.32;6.43;;;25.20;93.20;;;;;;5087651;28;20428;-79
2022/07/21 10:10:04;;;;;;;7.40;5.32;;;25.20;93.70;;;;;;5072704;28;20445;-76
2022/07/21 10:12:30;;;;;;;9.05;5.20;;;25.10;93.90;;;;;;5072463;28;20028;-79
2022/07/21 10:14:56;;;;;;;8.93;5.88;;;25.10;94.30;;;;;;5072452;28;20402;-76
2022/07/21 10:17:23;;;;;;;9.73;5.45;;;25.10;94.10;;;;;;5053734;28;20025;-79
2022/07/21 10:19:53;;;;;;;9.18;5.70;;;25.10;94.50;;;;;;5054019;28;20032;-78
2022/07/21 10:22:30;;;;;;;7.18;5.80;;;25.20;94.10;;;;;;5054112;28;20107;-79
2022/07/21 10:24:56;;;;;;;7.57;5.05;;;25.20;94.50;;;;;;5053977;28;20090;-78
2022/07/21 10:27:22;;;;;;;6.28;5.15;;;25.30;94.50;;;;;;5087149;28;20064;-80
2022/07/21 10:29:47;;;;;;;5.93;5.32;;;25.40;94.60;;;;;;5054086;28;20119;-77
2022/07/21 10:32:18;;;;;;;5.78;4.97;;;25.50;94.20;;;;;;5053745;28;20503;-79
2022/07/21 10:34:44;;;;;;;7.07;5.20;;;25.60;94.50;;;;;;5054043;28;20028;-80
2022/07/21 10:37:11;;;;;;;7.00;5.10;;;25.70;93.90;;;;;;5071416;28;20044;-78
2022/07/21 10:39:39;;;;;;;6.32;4.85;;;25.90;93.70;;;;;;5053558;28;20646;-81
2022/07/21 10:42:16;;;;;;;6.90;5.03;;;26.00;93.30;;;;;;5071801;28;20033;-80
2022/07/21 10:44:44;;;;;;;7.65;4.57;;;26.20;93.40;;;;;;5071733;28;20039;-78
2022/07/21 10:47:12;;;;;;;8.40;4.90;;;26.40;92.90;;;;;;5071146;28;20379;-77
2022/07/21 10:49:51;;;;;;;7.00;5.03;;;26.60;92.40;;;;;;5071625;28;20027;-78
2022/07/21 10:52:35;;;;;;;6.93;4.88;;;26.90;92.00;;;;;;5053402;28;20032;-80
2022/07/21 10:55:09;;;;;;;7.43;4.53;;;27.10;92.00;;;;;;5071803;28;20037;-78
2022/07/21 10:57:46;;;;;;;6.55;4.70;;;27.20;91.60;;;;;;5053147;28;20025;-79
2022/07/21 11:00:27;;;;;;;5.90;4.50;;;27.40;92.70;;;;;;5071807;28;20043;-81
2022/07/21 11:02:59;;;;;;;6.28;4.55;;;27.60;92.00;;;;;;5071354;28;20032;-79
2022/07/21 11:05:28;;;;;;;9.38;5.13;;;27.60;91.60;;;;;;5070814;28;20759;-81
2022/07/21 11:08:13;;;;;;;9.32;4.40;;;27.70;91.30;;;;;;5071694;28;20035;-76
2022/07/21 11:10:41;;;;;;;6.25;4.18;;;27.80;91.20;;;;;;5066626;28;20028;-79
2022/07/21 11:13:07;;;;;;;5.82;4.40;;;27.80;90.30;;;;;;5071492;28;20036;-78
2022/07/21 11:15:50;;;;;;;5.10;4.38;;;28.10;89.00;;;;;;5070762;28;20086;-78
2022/07/21 11:18:17;;;;;;;7.25;3.85;;;28.30;88.70;;;;;;5071387;28;20025;-78
2022/07/21 11:20:43;;;;;;;5.95;4.13;;;28.60;90.10;;;;;;5070916;28;20029;-80
2022/07/21 11:23:09;;;;;;;7.57;4.60;;;28.80;88.30;;;;;;5071256;28;20027;-79
2022/07/21 11:25:34;;;;;;;5.25;4.63;;;29.00;87.70;;;;;;5070437;28;20113;-78
2022/07/21 11:28:00;;;;;;;6.65;5.43;;;29.20;87.50;;;;;;5053290;28;20462;-80
2022/07/21 11:30:25;;;;;;;5.57;4.95;;;29.40;87.20;;;;;;5070873;28;20364;-76
2022/07/21 11:32:51;;;;;;;5.32;4.80;;;29.50;84.90;;;;;;5052409;28;20035;-80
2022/07/21 11:35:17;;;;;;;5.93;4.57;;;29.40;84.30;;;;;;5070525;28;20041;-79
2022/07/21 11:37:45;;;;;;;5.60;4.90;;;29.40;85.10;;;;;;5052330;28;20404;-79
2022/07/21 11:40:20;;;;;;;7.57;5.18;;;29.40;85.60;;;;;;5052572;28;20363;-81
2022/07/21 11:42:47;;;;;;;7.25;4.82;;;29.50;85.80;;;;;;5070540;28;20093;-77
2022/07/21 11:45:14;;;;;;;6.10;4.72;;;29.50;85.50;;;;;;5052599;28;20032;-78
2022/07/21 11:47:40;;;;;;;7.10;5.30;;;29.50;85.40;;;;;;5070212;28;20036;-79
2022/07/21 11:50:08;;;;;;;10.07;5.53;;;29.50;83.90;;;;;;5052969;28;20390;-80
2022/07/21 11:52:36;;;;;;;6.15;5.55;;;29.50;86.00;;;;;;5070197;28;20043;-78
2022/07/21 11:55:04;;;;;;;7.55;5.78;;;29.40;85.40;;;;;;5053032;28;20036;-80
2022/07/21 11:57:30;;;;;;;7.57;5.72;;;29.30;86.10;;;;;;5070031;28;20031;-79
2022/07/21 11:59:57;;;;;;;6.10;5.50;;;29.30;86.60;;;;;;5052695;28;20036;-78
2022/07/21 12:02:29;;;;;;;7.47;5.32;;;29.30;86.30;;;;;;5052159;28;20036;-82
2022/07/21 12:04:57;;;;;;;6.57;5.90;;;29.30;86.40;;;;;;5070717;28;20468;-79
2022/07/21 12:07:35;;;;;;;6.85;5.45;;;29.20;86.50;;;;;;5069496;28;20036;-81
2022/07/21 12:10:06;;;;;;;6.05;5.32;;;29.10;85.20;;;;;;5071269;28;20043;-78
2022/07/21 12:12:42;;;;;;;8.52;5.85;;;29.00;85.90;;;;;;5052222;28;20024;-80
2022/07/21 12:15:28;;;;;;;6.90;5.53;;;29.00;87.50;;;;;;5073853;28;20048;-80
2022/07/21 12:18:14;;;;;;;6.80;5.32;;;28.90;86.70;;;;;;5054373;28;20474;-79
2022/07/21 12:20:41;;;;;;;9.93;5.43;;;28.90;86.40;;;;;;5038453;28;20812;-78
2022/07/21 12:23:21;;;;;;;5.60;5.10;;;28.90;85.50;;;;;;5070289;28;20032;-78
2022/07/21 12:25:48;;;;;;;7.35;5.60;;;29.10;85.80;;;;;;5050995;28;20040;-80
2022/07/21 12:28:14;;;;;;;6.57;4.70;;;29.40;88.80;;;;;;5070182;28;20032;-79
2022/07/21 12:30:41;;;;;;;8.85;5.47;;;29.60;85.80;;;;;;5069962;28;20033;-79
2022/07/21 12:33:10;;;;;;;8.85;5.72;;;29.90;83.70;;;;;;5070392;28;20090;-81
2022/07/21 12:35:37;;;;;;;6.60;5.28;;;30.00;83.50;;;;;;5069087;28;20035;-82
2022/07/21 12:38:09;;;;;;;5.80;4.78;;;30.20;83.40;;;;;;5052118;28;20078;-77
2022/07/21 12:40:37;;;;;;;8.00;6.10;;;30.50;82.30;;;;;;5069838;28;20107;-80
2022/07/21 12:43:04;;;;;;;6.45;5.43;;;30.70;81.50;;;;;;5070202;28;20037;-79
2022/07/21 12:45:29;;;;;;;7.30;4.63;;;30.90;79.60;;;;;;5069128;28;20044;-80
2022/07/21 12:48:08;;;;;;;7.72;4.97;;;31.00;80.60;;;;;;5070186;28;20029;-82
2022/07/21 12:50:35;;;;;;;7.72;5.32;;;31.30;79.50;;;;;;5051462;28;20036;-78